Terminal Aerodrome Forecast
Issued by NWS

Home | Current Version | Previous Version | Graphics & Text | Print | Product List | Glossary On
Versions: 1 2 3 4 5 6 7 8 9 10 11 12 13 14 15 16 17
000
FTUS43 KMPX 211400 AAA
TAFRWF
TAF AMD
KRWF 211449Z 2115/2212 16009KT 1/2SM FG VV002
      TEMPO 2115/2118 1 1/2SM BR OVC004
     FM211900 16015KT 2SM BR OVC005
     FM220200 15015KT 3SM BR OVC008
     FM220500 14013KT 1 1/2SM -RA BR OVC004=

USA.gov is the U.S. government's official web portal to all federal, state and local government web resources and services.